Time;durP1;ratioP1;P1;durP2;ratioP2;P2;SDS_P1;SDS_P2;PMS_P1;PMS_P2;Temp;Humidity;BMP_temperature;BMP_pressure;BME280_temperature;BME280_humidity;BME280_pressure;Samples;Min_cycle;Max_cycle;Signal;HPM_P1;HPM_P2
2021/10/15 00:02:24;;;;;;;10.07;9.07;;;5.30;99.90;;;6.09;92.19;98392.91;5156988;28;20195;-64
2021/10/15 00:04:57;;;;;;;9.70;8.80;;;5.30;99.90;;;6.07;92.16;98391.91;5151913;28;20281;-64
2021/10/15 00:07:30;;;;;;;9.53;8.67;;;5.30;99.90;;;6.06;91.86;98385.03;5153388;28;20209;-64
2021/10/15 00:10:05;;;;;;;10.70;9.80;;;5.20;99.90;;;5.94;91.66;98391.66;5151736;28;20642;-65
2021/10/15 00:12:38;;;;;;;9.83;9.00;;;5.20;99.90;;;5.91;91.38;98388.81;5154915;28;20567;-64
2021/10/15 00:15:11;;;;;;;9.43;8.70;;;5.10;99.90;;;6.00;91.62;98384.53;5157884;28;20220;-64
2021/10/15 00:17:45;;;;;;;9.77;8.87;;;5.20;99.90;;;5.96;92.62;98391.00;5155142;28;20215;-64
2021/10/15 00:20:18;;;;;;;10.13;9.17;;;5.30;99.90;;;5.95;92.75;98383.25;5154382;28;20203;-64
2021/10/15 00:22:51;;;;;;;10.57;9.50;;;5.20;99.90;;;5.92;93.04;98385.50;5156595;28;20779;-64
2021/10/15 00:25:25;;;;;;;10.33;9.43;;;5.20;99.90;;;5.92;92.45;98388.06;5156551;28;20311;-64
2021/10/15 00:27:58;;;;;;;9.13;8.33;;;5.20;99.90;;;5.92;92.62;98381.31;5167679;28;20198;-64
2021/10/15 00:30:31;;;;;;;9.27;8.47;;;5.20;99.90;;;5.93;92.11;98379.69;5172297;28;20577;-64
2021/10/15 00:33:05;;;;;;;9.30;8.40;;;5.20;99.90;;;5.90;92.67;98384.53;5175203;28;20698;-64
2021/10/15 00:35:39;;;;;;;9.33;8.43;;;5.10;99.90;;;5.89;92.94;98388.69;5166997;28;20305;-64
2021/10/15 00:38:12;;;;;;;8.37;7.57;;;5.10;99.90;;;5.85;92.09;98379.94;5174000;28;20205;-65
2021/10/15 00:40:46;;;;;;;8.60;7.90;;;5.00;99.90;;;5.88;90.50;98374.22;5170094;28;20238;-64
2021/10/15 00:43:19;;;;;;;8.13;7.47;;;4.90;99.90;;;5.90;89.15;98374.38;5163418;28;20283;-64
2021/10/15 00:45:53;;;;;;;9.27;8.47;;;4.80;99.90;;;5.78;89.56;98372.59;5165227;28;20203;-64
2021/10/15 00:48:27;;;;;;;8.33;7.73;;;4.80;99.90;;;5.65;89.31;98374.84;5163617;28;20199;-64
2021/10/15 00:51:00;;;;;;;8.03;7.33;;;4.70;99.90;;;5.59;89.72;98371.78;5169248;28;20561;-64
2021/10/15 00:53:34;;;;;;;8.60;7.90;;;4.70;99.90;;;5.55;90.11;98378.25;5165595;28;20321;-64
2021/10/15 00:56:07;;;;;;;9.00;8.10;;;4.60;99.90;;;5.55;90.22;98368.13;5168078;28;20206;-64
2021/10/15 00:58:40;;;;;;;8.00;7.30;;;4.60;99.90;;;5.54;90.27;98373.94;5162419;28;20205;-64
2021/10/15 01:01:13;;;;;;;7.63;7.00;;;4.60;99.90;;;5.54;89.80;98370.50;5174099;28;20206;-64
2021/10/15 01:03:48;;;;;;;8.70;7.90;;;4.60;99.90;;;5.51;89.78;98365.19;5161253;28;20230;-64
2021/10/15 01:06:21;;;;;;;8.70;7.90;;;4.50;99.90;;;5.43;89.50;98372.13;5163773;28;20290;-64
2021/10/15 01:08:55;;;;;;;8.57;7.77;;;4.50;99.90;;;5.38;90.05;98365.81;5160765;28;20688;-64
2021/10/15 01:11:29;;;;;;;8.30;7.60;;;4.50;99.90;;;5.35;89.90;98353.75;5162529;28;20673;-64
2021/10/15 01:14:03;;;;;;;8.50;7.83;;;4.50;99.90;;;5.28;89.80;98353.09;5157341;28;20223;-64
2021/10/15 01:16:36;;;;;;;7.63;7.03;;;4.50;99.90;;;5.25;90.24;98346.13;5164789;28;20207;-64
2021/10/15 01:19:11;;;;;;;8.97;8.17;;;4.40;99.90;;;5.27;89.38;98354.75;5163081;28;20199;-64
2021/10/15 01:21:46;;;;;;;7.70;7.00;;;4.40;99.90;;;5.28;89.45;98355.63;5164661;28;20194;-64
2021/10/15 01:24:19;;;;;;;8.20;7.50;;;4.40;99.90;;;5.25;89.85;98351.19;5158402;28;20725;-64
2021/10/15 01:26:52;;;;;;;8.23;7.43;;;4.40;99.90;;;5.21;90.43;98354.22;5161444;28;20206;-64
2021/10/15 01:29:26;;;;;;;7.57;6.70;;;4.40;99.90;;;5.18;90.77;98344.72;5161524;28;20204;-64
2021/10/15 01:32:00;;;;;;;7.83;7.20;;;4.50;99.90;;;5.21;90.80;98349.16;5159777;28;20224;-64
2021/10/15 01:34:33;;;;;;;7.47;6.87;;;4.40;99.90;;;5.22;90.24;98350.94;5163191;28;20302;-64
2021/10/15 01:37:08;;;;;;;8.07;7.47;;;4.40;99.90;;;5.19;90.49;98340.53;5160511;28;20306;-64
2021/10/15 01:39:41;;;;;;;8.57;7.70;;;4.30;99.90;;;5.13;90.21;98334.94;5162918;28;20206;-64
2021/10/15 01:45:01;;;;;;;7.17;6.57;;;4.30;99.90;;;5.08;90.28;98326.06;5153727;28;20241;-64
2021/10/15 01:47:34;;;;;;;7.80;7.20;;;4.30;99.90;;;5.02;90.26;98320.47;5162301;28;20562;-64
2021/10/15 01:50:08;;;;;;;7.80;7.17;;;4.20;99.90;;;5.02;90.03;98320.47;5157325;28;20607;-64
2021/10/15 01:52:43;;;;;;;8.03;7.43;;;4.20;99.90;;;4.97;89.42;98320.06;5159698;28;20207;-64
2021/10/15 01:55:16;;;;;;;7.23;6.73;;;4.10;99.90;;;4.89;89.52;98311.81;5162732;28;20305;-64
2021/10/15 01:57:50;;;;;;;8.23;7.43;;;4.10;99.90;;;4.87;89.92;98310.81;5159314;28;20704;-64
2021/10/15 02:00:23;;;;;;;7.40;6.80;;;4.10;99.90;;;4.90;90.23;98306.00;5161213;28;20293;-64
2021/10/15 02:02:56;;;;;;;7.90;7.30;;;4.20;99.90;;;4.89;90.56;98301.69;5160311;28;20571;-64
2021/10/15 02:05:30;;;;;;;7.87;7.17;;;4.10;99.90;;;4.85;91.04;98297.09;5155566;28;20694;-59
2021/10/15 02:08:05;;;;;;;7.27;6.57;;;4.10;99.90;;;4.85;90.95;98294.56;5158750;28;20634;-62
2021/10/15 02:10:38;;;;;;;7.10;6.60;;;4.10;99.90;;;4.80;90.65;98288.22;5161286;28;20199;-61
2021/10/15 02:13:11;;;;;;;7.37;6.73;;;4.00;99.90;;;4.77;90.35;98282.91;5162729;28;20236;-61
2021/10/15 02:15:44;;;;;;;7.60;6.80;;;4.00;99.90;;;4.77;90.79;98285.44;5161891;28;20284;-61
2021/10/15 02:18:17;;;;;;;6.80;6.20;;;4.00;99.90;;;4.70;90.91;98281.50;5159807;28;20655;-60
2021/10/15 02:20:51;;;;;;;6.93;6.43;;;4.00;99.90;;;4.73;90.48;98276.69;5157102;28;20205;-62
2021/10/15 02:23:25;;;;;;;6.90;6.20;;;3.90;99.90;;;4.71;90.34;98269.72;5163141;28;20195;-62
2021/10/15 02:25:59;;;;;;;7.63;7.03;;;3.90;99.90;;;4.67;90.76;98271.09;5161202;28;20297;-59
2021/10/15 02:28:32;;;;;;;8.27;7.27;;;3.90;99.90;;;4.65;90.74;98271.72;5158746;28;20247;-62
2021/10/15 02:31:05;;;;;;;7.07;6.57;;;3.90;99.90;;;4.65;90.58;98271.72;5155813;28;20206;-62
2021/10/15 02:33:39;;;;;;;8.00;7.40;;;3.90;99.90;;;4.66;90.60;98273.47;5155674;28;20257;-60
2021/10/15 02:36:14;;;;;;;8.00;7.30;;;3.90;99.90;;;4.68;90.36;98271.97;5154222;28;20297;-60
2021/10/15 02:38:48;;;;;;;7.57;6.87;;;3.90;99.90;;;4.61;90.69;98269.69;5160482;28;20209;-62
2021/10/15 02:41:21;;;;;;;7.63;7.00;;;3.90;99.90;;;4.63;90.49;98273.22;5159109;28;20209;-61
2021/10/15 02:43:54;;;;;;;8.00;7.30;;;3.90;99.90;;;4.62;90.33;98271.47;5161703;28;20317;-60
2021/10/15 02:46:27;;;;;;;7.83;7.20;;;3.90;99.90;;;4.56;90.34;98265.88;5159804;28;20201;-61
2021/10/15 02:49:00;;;;;;;7.33;6.63;;;3.80;99.90;;;4.45;90.08;98273.41;5161623;28;20236;-61
2021/10/15 02:51:34;;;;;;;7.70;7.10;;;3.70;99.90;;;4.47;90.12;98261.78;5163841;28;20225;-62
2021/10/15 02:54:09;;;;;;;7.10;6.50;;;3.70;99.90;;;4.41;90.63;98261.25;5161615;28;20238;-60
2021/10/15 02:56:42;;;;;;;7.90;7.20;;;3.70;99.90;;;4.43;90.64;98257.19;5164174;28;20628;-60
2021/10/15 02:59:16;;;;;;;7.57;6.97;;;3.70;99.90;;;4.45;90.67;98253.16;5159002;28;20498;-61
2021/10/15 03:01:49;;;;;;;6.87;6.27;;;3.70;99.90;;;4.44;91.00;98256.47;5160221;28;20206;-61
2021/10/15 03:04:22;;;;;;;8.57;7.37;;;3.70;99.90;;;4.43;90.62;98242.00;5151979;28;20518;-59
2021/10/15 03:06:55;;;;;;;6.93;6.43;;;3.70;99.90;;;4.45;90.64;98243.03;5150231;28;20204;-61
2021/10/15 03:09:29;;;;;;;8.20;7.27;;;3.70;99.90;;;4.46;90.31;98237.25;5150723;28;20211;-59
2021/10/15 03:12:03;;;;;;;8.77;7.87;;;3.70;99.90;;;4.41;90.43;98241.00;5151477;28;20233;-60
2021/10/15 03:14:36;;;;;;;7.20;6.60;;;3.70;99.90;;;4.37;90.37;98240.59;5153048;28;20232;-61
2021/10/15 03:17:09;;;;;;;8.60;7.90;;;3.60;99.90;;;4.35;90.48;98243.00;5155968;28;20203;-62
2021/10/15 03:19:42;;;;;;;8.17;7.47;;;3.60;99.90;;;4.27;91.96;98241.44;5157403;28;20291;-62
2021/10/15 03:22:15;;;;;;;7.93;7.27;;;3.70;99.90;;;4.27;91.44;98241.44;5153251;28;20678;-63
2021/10/15 03:24:49;;;;;;;7.60;7.00;;;3.60;99.90;;;4.28;90.75;98243.22;5157435;28;20224;-62
2021/10/15 03:27:22;;;;;;;7.77;7.17;;;3.50;99.90;;;4.25;89.86;98232.84;5160910;28;20713;-62
2021/10/15 03:29:55;;;;;;;7.70;6.93;;;3.40;99.90;;;4.10;90.22;98237.44;5157222;28;20568;-61
2021/10/15 03:32:28;;;;;;;7.80;7.10;;;3.30;99.90;;;4.10;90.82;98228.97;5160381;28;20204;-63
2021/10/15 03:35:02;;;;;;;7.67;6.97;;;3.40;99.90;;;4.09;91.57;98233.13;5159796;28;20416;-62
2021/10/15 03:37:35;;;;;;;7.77;7.10;;;3.40;99.90;;;4.17;91.10;98234.69;5155318;28;20209;-62
2021/10/15 03:40:11;;;;;;;8.40;7.70;;;3.40;99.90;;;4.15;91.23;98235.31;5158503;28;20212;-65
2021/10/15 03:42:44;;;;;;;9.60;8.70;;;3.40;99.90;;;4.17;91.39;98236.34;5157846;28;20287;-62
2021/10/15 03:45:17;;;;;;;9.17;8.37;;;3.50;99.90;;;4.18;91.01;98233.06;5155754;28;20222;-63
2021/10/15 03:47:50;;;;;;;8.80;8.00;;;3.40;99.90;;;4.14;90.75;98226.81;5164929;28;20206;-60
2021/10/15 03:50:24;;;;;;;8.77;8.07;;;3.40;99.90;;;4.13;90.53;98235.19;5159036;28;20213;-61
2021/10/15 03:52:57;;;;;;;9.37;8.50;;;3.40;99.90;;;4.13;91.30;98235.19;5162334;28;20566;-60
2021/10/15 03:55:31;;;;;;;9.23;8.37;;;3.40;99.90;;;4.17;90.91;98232.16;5161753;28;20309;-62
2021/10/15 03:58:04;;;;;;;9.27;8.40;;;3.40;99.90;;;4.20;91.04;98229.88;5162045;28;20623;-62
2021/10/15 04:00:37;;;;;;;9.13;8.30;;;3.50;99.90;;;4.14;91.42;98223.41;5159707;28;20212;-60
2021/10/15 04:03:10;;;;;;;9.10;8.20;;;3.40;99.90;;;4.17;91.56;98223.69;5158377;28;20296;-64
2021/10/15 04:05:43;;;;;;;8.10;7.50;;;3.50;99.90;;;4.16;91.11;98230.38;5156663;28;20216;-61
2021/10/15 04:08:16;;;;;;;8.53;7.77;;;3.40;99.90;;;4.14;90.77;98218.34;5160155;28;20601;-63
2021/10/15 04:10:52;;;;;;;8.33;7.40;;;3.30;99.90;;;4.07;90.21;98220.34;5152842;28;20197;-61
2021/10/15 04:13:25;;;;;;;8.83;8.03;;;3.30;99.90;;;4.06;90.33;98212.63;5157328;28;20295;-65
2021/10/15 04:16:00;;;;;;;10.07;9.07;;;3.30;99.90;;;3.98;90.27;98211.97;5157893;28;20207;-62
2021/10/15 04:18:33;;;;;;;9.87;9.03;;;3.30;99.90;;;3.93;90.12;98212.31;5163175;28;20204;-61
2021/10/15 04:21:06;;;;;;;8.47;7.67;;;3.20;99.90;;;3.92;90.56;98201.31;5157191;28;20307;-61
2021/10/15 04:23:39;;;;;;;10.77;9.27;;;3.20;99.90;;;3.86;91.49;98205.81;5162552;28;20294;-63
2021/10/15 04:26:13;;;;;;;8.50;7.77;;;3.20;99.90;;;3.88;90.82;98204.31;5165025;28;20216;-62
2021/10/15 04:28:48;;;;;;;9.57;8.60;;;3.10;99.90;;;3.94;90.84;98209.91;5168787;28;20223;-60
2021/10/15 04:31:22;;;;;;;9.33;8.53;;;3.20;99.90;;;3.93;91.13;98198.03;5174836;28;20623;-61
2021/10/15 04:33:55;;;;;;;9.43;8.53;;;3.20;99.90;;;3.88;91.52;98199.25;5171388;28;20227;-61
2021/10/15 04:36:28;;;;;;;9.60;8.60;;;3.20;99.90;;;3.94;91.33;98197.25;5171041;28;20310;-67
2021/10/15 04:39:01;;;;;;;8.57;7.77;;;3.20;99.90;;;3.97;90.45;98189.06;5165109;28;20282;-63
2021/10/15 04:41:36;;;;;;;8.43;7.83;;;3.20;99.90;;;3.93;90.80;98190.44;5162742;28;20295;-62
2021/10/15 04:44:09;;;;;;;8.23;7.53;;;3.20;99.90;;;3.92;90.10;98186.16;5155674;28;20221;-64
2021/10/15 04:46:42;;;;;;;8.23;7.53;;;3.10;99.90;;;3.88;89.84;98183.22;5164605;28;20212;-62
2021/10/15 04:49:15;;;;;;;9.70;7.80;;;3.00;99.90;;;3.82;89.68;98183.56;5173808;28;20289;-66
2021/10/15 04:51:49;;;;;;;8.60;7.73;;;2.90;99.90;;;3.83;89.00;98176.13;5174092;28;20216;-62
2021/10/15 04:54:22;;;;;;;8.77;7.97;;;2.90;99.90;;;3.80;89.00;98177.47;5159383;28;20227;-63
2021/10/15 04:56:56;;;;;;;8.53;7.73;;;2.90;99.90;;;3.71;89.92;98184.25;5166670;28;20201;-61
2021/10/15 04:59:29;;;;;;;9.17;7.83;;;2.90;99.90;;;3.69;89.97;98180.69;5174545;28;20209;-62
2021/10/15 05:02:02;;;;;;;9.70;8.70;;;2.90;99.90;;;3.66;90.98;98172.84;5172631;28;20749;-63
2021/10/15 05:04:36;;;;;;;8.10;7.07;;;2.90;99.90;;;3.60;90.46;98175.69;5160946;28;20226;-61
2021/10/15 05:07:09;;;;;;;8.70;7.90;;;2.90;99.90;;;3.59;90.31;98167.25;5165703;28;20302;-63
2021/10/15 05:09:43;;;;;;;9.10;8.30;;;2.90;99.90;;;3.60;91.30;98170.66;5165696;28;20209;-63
2021/10/15 05:12:17;;;;;;;8.50;7.80;;;2.90;99.90;;;3.59;90.72;98168.88;5168962;28;20298;-61
2021/10/15 05:14:50;;;;;;;9.03;8.23;;;2.80;99.90;;;3.54;91.10;98165.06;5171064;28;20309;-61
2021/10/15 05:17:23;;;;;;;9.67;8.77;;;2.80;99.90;;;3.50;90.37;98163.91;5165628;28;20573;-63
2021/10/15 05:19:56;;;;;;;9.33;8.47;;;2.80;99.90;;;3.48;91.32;98165.41;5162458;28;20200;-67
2021/10/15 05:22:30;;;;;;;9.13;8.27;;;2.80;99.90;;;3.50;91.21;98170.59;5159336;28;20207;-61
2021/10/15 05:25:05;;;;;;;10.00;9.10;;;2.80;99.90;;;3.46;91.85;98166.88;5164010;28;20713;-59
2021/10/15 05:27:40;;;;;;;10.20;9.20;;;2.80;99.90;;;3.48;91.61;98167.91;5165109;28;20201;-62
2021/10/15 05:30:13;;;;;;;7.90;7.13;;;2.80;99.90;;;3.53;90.70;98168.34;5163724;28;20197;-61
2021/10/15 05:32:46;;;;;;;8.13;7.43;;;2.70;99.90;;;3.53;90.11;98154.06;5181217;28;20296;-63
2021/10/15 05:35:20;;;;;;;8.23;7.53;;;2.70;99.90;;;3.45;90.28;98160.06;5183114;28;20308;-63
2021/10/15 05:37:53;;;;;;;8.20;7.37;;;2.70;99.90;;;3.41;91.29;98158.03;5164472;28;20669;-62
2021/10/15 05:40:26;;;;;;;8.33;7.63;;;2.70;99.90;;;3.41;91.29;98168.16;5176015;28;20642;-58
2021/10/15 05:43:01;;;;;;;7.70;7.00;;;2.70;99.90;;;3.39;90.77;98159.53;5164814;28;20299;-61
2021/10/15 05:45:34;;;;;;;8.17;7.57;;;2.70;99.90;;;3.42;91.18;98164.84;5159305;28;20223;-62
2021/10/15 05:48:07;;;;;;;8.10;7.30;;;2.70;99.90;;;3.44;91.03;98154.91;5167759;28;20218;-63
2021/10/15 05:50:41;;;;;;;8.10;7.40;;;2.70;99.90;;;3.51;90.57;98163.13;5171024;28;20206;-61
2021/10/15 05:53:17;;;;;;;8.60;7.87;;;2.70;99.90;;;3.47;90.38;98163.63;5163629;28;20204;-60
2021/10/15 05:56:04;;;;;;;8.13;7.43;;;2.70;99.90;;;3.50;90.49;98161.38;5165941;28;20223;-60
2021/10/15 05:58:50;;;;;;;9.53;7.50;;;2.70;99.90;;;3.53;90.71;98163.28;5172941;28;20290;-60
2021/10/15 06:01:26;;;;;;;9.57;8.73;;;2.80;99.90;;;3.54;90.43;98160.88;5159964;28;20205;-62
2021/10/15 06:04:16;;;;;;;10.10;9.03;;;2.70;99.90;;;3.58;91.26;98167.13;5165716;28;20576;-63
2021/10/15 06:15:35;;;;;;;12.00;10.80;;;3.10;99.90;;;3.91;92.25;98164.13;5170913;28;20227;-63
2021/10/15 06:18:14;;;;;;;11.83;10.50;;;3.20;99.90;;;3.98;91.13;98168.97;5166983;28;20194;-62
2021/10/15 06:20:48;;;;;;;11.60;10.30;;;3.20;99.90;;;4.26;90.33;98167.22;5167714;28;20299;-63
2021/10/15 06:23:21;;;;;;;12.60;11.40;;;3.40;99.90;;;4.48;90.14;98157.25;5170103;28;20198;-60
2021/10/15 06:25:54;;;;;;;10.53;9.53;;;3.60;99.90;;;4.64;88.26;98154.38;5174667;28;20257;-65
2021/10/15 06:28:28;;;;;;;9.50;8.57;;;3.80;99.90;;;4.78;88.82;98154.66;5164153;28;20231;-63
2021/10/15 06:31:02;;;;;;;9.87;8.97;;;4.00;99.90;;;4.93;88.71;98164.44;5170799;28;20297;-61
2021/10/15 06:33:35;;;;;;;10.93;9.93;;;4.20;99.90;;;5.25;87.58;98173.81;5159085;28;20307;-60
2021/10/15 06:36:08;;;;;;;9.73;8.73;;;4.40;99.90;;;5.35;84.47;98162.75;5171148;28;20240;-62
2021/10/15 06:38:41;;;;;;;10.20;9.20;;;4.40;99.90;;;5.51;85.54;98175.06;5157932;28;20654;-58
2021/10/15 06:41:15;;;;;;;9.53;8.70;;;4.50;99.90;;;5.86;84.75;98178.78;5166710;28;20281;-62
2021/10/15 06:43:48;;;;;;;9.83;8.70;;;4.80;99.90;;;6.17;83.46;98176.19;5169483;28;20227;-60
2021/10/15 06:46:22;;;;;;;10.80;9.70;;;5.10;99.90;;;5.97;81.76;98181.31;5164301;28;20204;-62
2021/10/15 06:48:55;;;;;;;9.50;8.70;;;4.90;99.90;;;5.78;84.01;98186.53;5169007;28;20205;-61
2021/10/15 06:51:29;;;;;;;9.93;9.03;;;4.90;99.90;;;5.82;83.60;98184.38;5164348;28;20211;-60
2021/10/15 06:54:02;;;;;;;9.13;8.33;;;4.90;99.90;;;5.80;83.78;98182.47;5164216;28;20692;-63
2021/10/15 06:56:35;;;;;;;8.67;7.97;;;4.90;99.90;;;5.83;83.58;98186.13;5160267;28;20317;-60
2021/10/15 06:59:08;;;;;;;9.20;8.40;;;4.90;99.90;;;5.98;81.66;98188.16;5163477;28;20298;-63
2021/10/15 07:01:42;;;;;;;9.30;8.50;;;4.70;99.90;;;5.78;82.64;98195.06;5166051;28;20595;-60
2021/10/15 07:04:16;;;;;;;8.87;8.03;;;4.70;99.90;;;5.77;82.81;98185.66;5161230;28;20234;-60
2021/10/15 07:06:49;;;;;;;10.77;9.77;;;4.70;99.90;;;5.67;83.31;98197.50;5155398;28;20338;-59
2021/10/15 07:09:22;;;;;;;9.93;9.03;;;4.70;99.90;;;5.79;83.73;98189.22;5164642;28;20297;-60
2021/10/15 07:11:55;;;;;;;10.93;10.03;;;4.80;99.90;;;5.95;83.64;98185.38;5162705;28;20234;-61
2021/10/15 07:14:28;;;;;;;11.37;10.33;;;5.00;99.90;;;6.03;83.14;98186.88;5161227;28;20656;-59
2021/10/15 07:17:02;;;;;;;10.43;9.33;;;5.00;99.90;;;6.10;82.88;98189.16;5159943;28;20317;-61
2021/10/15 07:19:35;;;;;;;11.20;10.13;;;5.10;99.90;;;6.04;82.79;98186.16;5162671;28;20248;-62
2021/10/15 07:22:08;;;;;;;13.83;12.40;;;5.20;99.90;;;6.24;83.72;98182.66;5155947;28;20290;-60
2021/10/15 07:24:41;;;;;;;11.33;10.23;;;5.30;99.90;;;6.61;83.32;98186.41;5156291;28;20592;-62
2021/10/15 07:27:15;;;;;;;12.67;9.83;;;5.70;99.90;;;6.65;82.28;98187.53;5170220;28;20194;-61
2021/10/15 07:29:48;;;;;;;10.07;9.07;;;5.90;99.90;;;7.02;82.32;98191.22;5169735;28;20206;-62
2021/10/15 07:32:22;;;;;;;10.53;9.43;;;6.20;99.90;;;7.43;81.17;98186.69;5166386;28;20199;-58
2021/10/15 07:34:55;;;;;;;10.87;9.13;;;6.60;99.90;;;7.67;79.68;98192.72;5167664;28;20671;-61
2021/10/15 07:37:29;;;;;;;9.17;8.47;;;6.80;99.90;;;7.96;78.34;98188.88;5166515;28;20226;-64
2021/10/15 07:40:02;;;;;;;10.03;9.13;;;7.10;99.90;;;8.13;77.33;98182.44;5164413;28;20257;-58
2021/10/15 07:42:35;;;;;;;9.53;8.60;;;7.30;99.90;;;8.26;76.44;98176.56;5164085;28;20290;-61
2021/10/15 07:45:10;;;;;;;10.80;9.80;;;7.40;99.90;;;8.32;76.70;98182.06;5163845;28;20307;-62
2021/10/15 07:48:00;;;;;;;9.93;9.03;;;7.50;99.90;;;8.40;75.96;98180.09;5156241;28;20242;-62
2021/10/15 07:50:34;;;;;;;9.57;8.70;;;7.40;99.90;;;8.56;76.15;98173.66;5160551;28;20298;-62
2021/10/15 07:53:07;;;;;;;8.60;7.83;;;7.60;99.90;;;8.79;74.59;98172.69;5162543;28;20681;-61
2021/10/15 07:55:40;;;;;;;9.90;8.90;;;7.80;99.90;;;8.85;75.20;98174.78;5167371;28;20231;-63
2021/10/15 07:58:13;;;;;;;10.67;8.97;;;8.00;99.90;;;9.18;74.58;98170.19;5169853;28;20203;-61
2021/10/15 08:00:46;;;;;;;9.80;8.83;;;8.30;99.90;;;9.44;74.10;98175.41;5177646;28;20290;-62
2021/10/15 08:03:20;;;;;;;9.70;8.80;;;8.60;99.90;;;9.80;73.87;98178.56;5174023;28;20287;-61
2021/10/15 08:05:54;;;;;;;9.37;8.53;;;9.00;99.90;;;10.09;72.45;98182.13;5150758;28;20219;-65
2021/10/15 08:08:27;;;;;;;9.83;8.83;;;9.30;99.90;;;10.28;72.63;98186.78;5148545;28;20652;-63
2021/10/15 08:11:00;;;;;;;9.50;8.30;;;9.60;99.90;;;10.64;71.46;98188.19;5155401;28;20628;-62
2021/10/15 08:13:34;;;;;;;9.32;8.43;;;10.00;99.90;;;10.95;70.98;98187.50;5154313;28;20302;-61
2021/10/15 08:16:07;;;;;;;9.98;9.15;;;10.30;99.90;;;11.32;69.07;98189.72;5148555;28;20266;-64
2021/10/15 08:18:41;;;;;;;8.52;7.82;;;10.70;99.90;;;11.48;69.48;98182.16;5136292;28;20204;-61
2021/10/15 08:21:15;;;;;;;9.18;8.48;;;10.80;99.90;;;11.74;68.80;98178.56;5136212;28;20628;-63
2021/10/15 08:23:48;;;;;;;9.45;8.65;;;11.00;99.90;;;11.86;68.84;98180.97;5142334;28;20241;-63
2021/10/15 08:26:21;;;;;;;8.57;7.88;;;11.10;99.90;;;11.94;68.19;98174.59;5157133;28;20196;-60
2021/10/15 08:28:59;;;;;;;8.93;8.23;;;11.10;99.90;;;12.04;67.89;98171.75;5150562;28;20731;-61
2021/10/15 08:31:32;;;;;;;8.63;7.93;;;11.30;99.90;;;12.18;67.19;98173.41;5149755;28;20283;-63
2021/10/15 08:34:09;;;;;;;7.88;7.20;;;11.40;99.90;;;12.24;67.21;98171.97;5154898;28;20220;-60
2021/10/15 08:36:43;;;;;;;9.05;8.18;;;11.50;99.90;;;12.35;67.24;98164.06;5156661;28;20576;-59
2021/10/15 08:39:20;;;;;;;9.18;8.30;;;11.60;99.90;;;12.44;66.81;98157.69;5146334;28;20295;-61
2021/10/15 08:41:54;;;;;;;9.15;8.30;;;11.70;99.90;;;12.55;67.39;98156.59;5136962;28;20286;-60
2021/10/15 08:44:34;;;;;;;8.68;7.88;;;11.80;99.90;;;12.86;65.43;98154.00;5148550;28;20708;-61
2021/10/15 08:47:08;;;;;;;8.57;7.80;;;12.20;99.90;;;12.88;65.99;98154.97;5135183;28;20188;-60
2021/10/15 08:50:02;;;;;;;9.23;7.97;;;12.20;99.90;;;12.98;65.30;98157.19;5137043;28;20208;-63
2021/10/15 08:52:35;;;;;;;7.88;7.28;;;12.30;99.90;;;13.16;64.21;98164.06;5133977;28;20206;-62
2021/10/15 08:55:09;;;;;;;9.38;8.48;;;12.40;99.90;;;13.26;64.06;98158.66;5134787;28;20219;-61
2021/10/15 08:57:48;;;;;;;8.60;7.78;;;12.50;99.90;;;13.35;63.93;98161.69;5141776;28;20223;-58
2021/10/15 09:00:35;;;;;;;9.60;8.70;;;12.60;99.90;;;13.49;63.02;98165.84;5152157;28;20304;-60
2021/10/15 09:03:17;;;;;;;8.60;7.85;;;12.70;99.90;;;13.66;63.82;98170.94;5154006;28;20219;-62
2021/10/15 09:05:56;;;;;;;8.07;7.28;;;12.90;99.90;;;13.87;61.97;98166.84;5159988;28;20310;-63
2021/10/15 09:08:47;;;;;;;7.80;7.18;;;13.20;99.90;;;13.92;61.31;98167.09;5157282;28;20197;-64
2021/10/15 09:11:31;;;;;;;7.53;6.93;;;13.10;99.90;;;14.05;60.98;98163.41;5176632;28;20196;-61
2021/10/15 09:14:11;;;;;;;7.28;6.65;;;13.20;99.90;;;14.15;60.99;98156.22;5168170;28;20237;-60
2021/10/15 09:16:57;;;;;;;7.22;6.53;;;13.30;99.90;;;14.32;59.21;98154.47;5157000;28;20219;-64
2021/10/15 09:19:33;;;;;;;6.40;5.97;;;13.50;99.90;;;14.33;59.40;98155.34;5169744;28;20195;-60
2021/10/15 09:22:22;;;;;;;6.38;5.88;;;13.50;99.90;;;14.32;59.48;98143.28;5158594;28;20616;-61
2021/10/15 09:25:00;;;;;;;6.30;5.78;;;13.60;99.90;;;14.52;58.72;98146.84;5169314;28;20595;-61
2021/10/15 09:27:36;;;;;;;6.45;5.88;;;13.70;99.90;;;14.52;59.04;98146.84;5159762;28;20206;-60
2021/10/15 09:30:12;;;;;;;6.38;5.88;;;13.80;99.90;;;14.62;58.17;98147.31;5161836;28;20198;-62
2021/10/15 09:32:47;;;;;;;6.53;6.03;;;13.90;99.90;;;14.78;58.13;98154.03;5158083;28;20753;-63
2021/10/15 09:35:23;;;;;;;6.10;5.63;;;14.10;99.90;;;14.84;57.43;98145.72;5156179;28;20298;-61
2021/10/15 09:38:01;;;;;;;5.80;5.35;;;14.10;99.90;;;14.85;57.65;98143.22;5164815;28;20222;-61
2021/10/15 09:40:37;;;;;;;6.22;5.63;;;14.00;99.90;;;14.96;58.32;98153.09;5161927;28;20199;-62
2021/10/15 09:43:13;;;;;;;6.50;6.00;;;14.10;99.90;;;14.95;57.29;98143.63;5162175;28;20195;-60
2021/10/15 09:45:50;;;;;;;6.95;6.35;;;14.20;99.90;;;15.02;57.46;98145.63;5162448;28;20199;-63
2021/10/15 09:48:27;;;;;;;5.80;5.30;;;14.20;99.90;;;15.03;56.76;98148.28;5164955;28;20199;-61
2021/10/15 09:51:15;;;;;;;5.90;5.40;;;14.30;99.90;;;15.07;57.16;98146.72;5163052;28;20199;-61
2021/10/15 09:54:14;;;;;;;5.93;5.43;;;14.40;99.90;;;15.12;56.57;98142.66;5156479;28;20227;-59
2021/10/15 09:56:51;;;;;;;5.75;5.28;;;14.40;99.90;;;15.24;57.41;98140.63;5158377;28;20739;-62
2021/10/15 09:59:42;;;;;;;5.30;4.80;;;14.50;99.90;;;15.35;56.56;98130.78;5156109;28;20715;-61
2021/10/15 10:02:15;;;;;;;5.20;4.80;;;14.50;99.90;;;15.32;56.98;98130.66;5158747;28;20311;-62
2021/10/15 10:04:49;;;;;;;5.82;4.93;;;14.70;99.90;;;15.45;56.70;98125.22;5155794;28;20334;-60
2021/10/15 10:07:24;;;;;;;5.65;5.05;;;14.80;99.90;;;15.49;55.48;98126.22;5157491;28;20230;-63
2021/10/15 10:09:59;;;;;;;4.90;4.50;;;14.70;99.90;;;15.55;55.46;98129.06;5149157;28;20288;-63
2021/10/15 10:12:36;;;;;;;5.47;5.07;;;14.80;99.90;;;15.54;55.64;98128.19;5157789;28;20199;-63
2021/10/15 10:15:12;;;;;;;5.38;4.93;;;14.80;99.90;;;15.60;55.90;98130.13;5159856;28;20227;-63
2021/10/15 10:17:53;;;;;;;5.32;4.93;;;14.80;99.90;;;15.58;55.76;98123.16;5152433;28;20660;-64
2021/10/15 10:20:29;;;;;;;4.57;4.28;;;14.80;99.90;;;15.53;56.72;98120.38;5157832;28;20203;-63
2021/10/15 10:23:12;;;;;;;5.40;5.00;;;14.80;99.90;;;15.70;56.40;98113.38;5150156;28;20277;-63
2021/10/15 10:25:47;;;;;;;5.45;5.05;;;14.90;99.90;;;15.81;55.31;98111.25;5164839;28;20669;-63
2021/10/15 10:28:22;;;;;;;5.05;4.65;;;14.90;99.90;;;15.80;54.70;98110.38;5163620;28;20285;-64
2021/10/15 10:30:59;;;;;;;4.22;3.92;;;15.00;99.90;;;15.77;56.31;98115.41;5166040;28;20207;-64
2021/10/15 10:33:51;;;;;;;4.55;4.15;;;15.10;99.90;;;15.82;56.00;98108.72;5174372;28;20612;-63
2021/10/15 10:36:25;;;;;;;4.10;3.70;;;15.10;99.90;;;15.85;56.00;98113.09;5171618;28;20634;-64
2021/10/15 10:39:30;;;;;;;5.15;4.43;;;15.20;99.90;;;15.89;55.50;98108.16;5152440;28;20220;-63
2021/10/15 10:42:07;;;;;;;5.10;4.13;;;15.20;99.90;;;15.99;57.03;98115.44;5158148;28;20229;-64
2021/10/15 10:44:45;;;;;;;3.90;3.60;;;15.30;99.90;;;16.03;56.52;98113.88;5157968;28;20298;-64
2021/10/15 10:47:20;;;;;;;4.07;3.78;;;15.30;99.90;;;16.13;55.33;98113.38;5157217;28;20198;-64
2021/10/15 10:50:12;;;;;;;4.00;3.70;;;15.30;99.90;;;16.02;55.63;98112.09;5173038;28;20298;-64
2021/10/15 10:53:16;;;;;;;4.55;4.25;;;15.30;99.90;;;16.08;55.00;98107.19;5166395;28;20715;-64
2021/10/15 10:55:54;;;;;;;4.22;3.92;;;15.20;99.90;;;15.98;54.90;98110.22;5081602;29;20217;-64
2021/10/15 10:58:37;;;;;;;4.65;4.25;;;15.10;99.90;;;15.89;56.11;98102.13;5153411;28;20269;-64
2021/10/15 11:01:24;;;;;;;4.15;3.85;;;15.10;99.90;;;15.94;55.97;98101.50;5163910;28;20286;-64
2021/10/15 11:03:59;;;;;;;4.60;4.30;;;15.10;99.90;;;15.99;56.71;98101.66;5167353;28;20234;-64
2021/10/15 11:06:54;;;;;;;4.25;3.92;;;15.10;99.90;;;16.01;56.39;98094.88;5167046;28;20197;-63
2021/10/15 11:09:30;;;;;;;4.72;4.32;;;15.20;99.90;;;15.85;56.35;98087.34;5163017;28;20659;-64
2021/10/15 11:12:04;;;;;;;4.15;3.85;;;15.20;99.90;;;15.81;56.71;98096.66;5166072;28;20235;-64
2021/10/15 11:14:55;;;;;;;4.75;3.80;;;15.10;99.90;;;15.83;57.63;98092.44;5168599;28;20321;-63